BSL weather

EuroAirport Basel-Mulhouse-Freiburg Airport
Bâle/Mulhouse, Grand Est, France

Public forecast

Using degrees Celsius for public forecast. Weather courtesy of forecast.io.

Current aviation weather report (METAR) for EuroAirport Basel-Mulhouse-Freiburg Airport

Retrieved 2019/12/11 13:30 UTC (10 minutes ago):

LFSB 111330Z 16006KT CAVOK 04/M00 Q1010 NOSIG

Aviation forecast (TAF) for EuroAirport Basel-Mulhouse-Freiburg Airport

Retrieved 2019/12/11 12:42 UTC (58 minutes ago):

TAF LFSB 111100Z 1112/1212 15008KT 9999 BKN050 TEMPO 1113/1121 RA BECMG 1202/1204 26010KT PROB30 TEMPO 1202/1208 -SHRA BKN014 FEW020TCU